Terminal Aerodrome Forecast
Issued by NWS Cleveland, OH

Home | Current Version | Previous Version | Text Only | Print | Product List | Glossary Off
Versions: 1 2 3 4 5 6 7 8 9 10 11 12 13 14 15 16 17 18 19 20 21 22 23 24 25 26 27 28

000
FTUS41 KCLE 301124
TAFCLE
TAF
KCLE 301124Z 3012/3118 27006KT P6SM BKN250
     FM301400 27014G20KT P6SM SKC
     FM310200 25006KT P6SM SKC
     FM311500 27012KT P6SM SKC=

USA.gov is the U.S. government's official web portal to all federal, state and local government web resources and services.